Time;durP1;ratioP1;P1;durP2;ratioP2;P2;SDS_P1;SDS_P2;PMS_P1;PMS_P2;Temp;Humidity;BMP_temperature;BMP_pressure;BME280_temperature;BME280_humidity;BME280_pressure;Samples;Min_cycle;Max_cycle;Signal;HPM_P1;HPM_P2
2023/06/07 00:00:06;;;;;;;3.05;2.03;;;19.10;90.40;;;19.48;81.97;101207.13;5185225;28;20490;-68
2023/06/07 00:02:44;;;;;;;3.53;2.13;;;19.00;90.70;;;19.41;82.33;101208.88;5178565;28;20058;-68
2023/06/07 00:05:16;;;;;;;3.55;2.25;;;19.00;90.90;;;19.36;82.42;101207.94;5185492;28;20056;-67
2023/06/07 00:07:48;;;;;;;3.22;2.20;;;18.90;91.10;;;19.31;82.86;101203.53;5185988;28;20540;-68
2023/06/07 00:10:21;;;;;;;3.13;2.00;;;18.90;91.40;;;19.28;83.39;101208.78;5185316;28;20504;-68
2023/06/07 00:12:54;;;;;;;2.90;2.15;;;18.80;91.70;;;19.19;82.13;101202.59;5186220;28;20042;-67
2023/06/07 00:15:26;;;;;;;3.22;2.03;;;18.80;91.40;;;19.14;82.23;101201.66;5184997;28;20041;-67
2023/06/07 00:18:00;;;;;;;2.45;1.98;;;18.70;91.50;;;19.13;83.14;101205.19;5186038;28;20411;-68
2023/06/07 00:20:32;;;;;;;2.90;2.42;;;18.70;91.90;;;19.14;83.72;101209.59;5177863;28;20069;-68
2023/06/07 00:23:05;;;;;;;4.47;2.40;;;18.70;92.30;;;19.15;84.39;101208.72;5185387;28;20042;-67
2023/06/07 00:25:39;;;;;;;2.92;2.00;;;18.70;92.70;;;19.15;84.70;101208.72;5184533;28;20060;-68
2023/06/07 00:28:12;;;;;;;2.75;2.10;;;18.70;93.00;;;19.19;83.58;101209.63;5185166;28;20414;-68
2023/06/07 00:30:45;;;;;;;3.45;2.13;;;18.70;92.70;;;19.23;83.10;101219.34;5199834;28;20050;-67
2023/06/07 00:33:17;;;;;;;2.55;2.00;;;18.70;92.90;;;19.24;82.67;101214.09;5185165;28;20049;-68
2023/06/07 00:35:49;;;;;;;4.35;2.15;;;18.70;92.60;;;19.23;83.08;101207.03;5185509;28;20046;-68
2023/06/07 00:38:21;;;;;;;2.80;2.13;;;18.80;92.80;;;19.24;83.36;101210.56;5185123;28;20073;-67
2023/06/07 00:40:56;;;;;;;3.22;2.15;;;18.70;93.00;;;19.25;83.06;101205.28;5185386;28;20046;-67
2023/06/07 00:43:28;;;;;;;3.38;2.40;;;18.80;92.90;;;19.24;82.17;101200.88;5184037;28;20060;-68
2023/06/07 00:46:00;;;;;;;4.88;2.22;;;18.80;92.70;;;19.25;81.91;101202.63;5183170;28;20050;-68
2023/06/07 00:48:34;;;;;;;3.25;2.20;;;18.80;92.60;;;19.23;79.81;101201.75;5177707;28;20434;-69
2023/06/07 00:51:07;;;;;;;4.20;2.55;;;18.80;91.90;;;19.25;79.87;101202.63;5184465;28;20048;-67
2023/06/07 00:53:40;;;;;;;3.53;2.40;;;18.80;92.20;;;19.27;79.44;101209.69;5185737;28;20413;-68
2023/06/07 00:56:15;;;;;;;3.05;2.40;;;18.80;91.80;;;19.26;79.08;101206.16;5183606;28;20143;-67
2023/06/07 00:58:48;;;;;;;4.60;2.70;;;18.80;91.70;;;19.27;79.27;101202.63;5184186;28;20045;-68
2023/06/07 01:01:20;;;;;;;3.97;2.72;;;18.80;91.70;;;19.28;79.66;101204.38;5183279;28;20097;-68
2023/06/07 01:03:54;;;;;;;3.95;2.30;;;18.80;91.90;;;19.30;79.72;101210.59;5170457;28;20376;-68
2023/06/07 01:06:26;;;;;;;4.88;2.40;;;18.80;92.00;;;19.28;79.77;101207.03;5183895;28;20077;-68
2023/06/07 01:08:59;;;;;;;3.15;2.42;;;18.80;92.00;;;19.25;80.23;101205.28;5184862;28;20112;-68
2023/06/07 01:11:35;;;;;;;3.63;2.38;;;18.80;92.10;;;19.22;81.03;101205.22;5184091;28;20045;-68
2023/06/07 01:14:10;;;;;;;4.38;2.53;;;18.80;92.40;;;19.20;82.22;101207.00;5183959;28;20409;-67
2023/06/07 01:16:44;;;;;;;4.47;2.92;;;18.70;92.90;;;19.17;81.72;101201.72;5184758;28;20506;-68
2023/06/07 01:19:22;;;;;;;3.33;2.50;;;18.70;92.80;;;19.11;81.40;101212.25;5183073;28;20053;-69
2023/06/07 01:22:02;;;;;;;2.92;2.25;;;18.70;92.70;;;19.08;82.06;101209.56;5183192;28;20088;-68
2023/06/07 01:24:37;;;;;;;4.07;2.30;;;18.60;93.00;;;19.06;82.37;101206.03;5175223;28;20128;-67
2023/06/07 01:27:10;;;;;;;3.63;2.47;;;18.60;93.20;;;19.04;82.41;101202.50;5183554;28;20141;-69
2023/06/07 01:29:43;;;;;;;3.35;2.33;;;18.60;93.20;;;19.06;82.41;101205.16;5183864;28;20048;-68
2023/06/07 01:32:16;;;;;;;4.10;2.38;;;18.60;93.30;;;19.07;83.03;101206.91;5184225;28;20457;-68
2023/06/07 01:34:49;;;;;;;3.78;2.22;;;18.60;93.60;;;19.06;82.71;101208.66;5184337;28;20048;-68
2023/06/07 01:37:26;;;;;;;3.60;2.20;;;18.60;93.60;;;19.07;81.98;101199.88;5183158;28;20042;-67
2023/06/07 01:40:01;;;;;;;3.83;2.53;;;18.60;93.40;;;19.06;81.90;101206.03;5184156;28;20483;-68
2023/06/07 01:42:35;;;;;;;3.58;2.15;;;18.60;93.40;;;19.06;82.02;101191.94;5182723;28;20041;-68
2023/06/07 01:45:08;;;;;;;4.13;2.45;;;18.60;93.50;;;19.04;81.89;101196.31;5182982;28;20049;-67
2023/06/07 01:47:41;;;;;;;3.97;2.53;;;18.60;93.40;;;19.05;81.94;101195.47;5184215;28;20057;-67
2023/06/07 01:50:22;;;;;;;3.28;2.30;;;18.60;93.50;;;19.07;82.58;101189.31;5175858;28;20385;-67
2023/06/07 01:52:54;;;;;;;3.75;2.47;;;18.60;93.80;;;19.07;83.25;101199.88;5182580;28;20041;-69
2023/06/07 01:55:30;;;;;;;3.53;2.47;;;18.60;94.00;;;19.07;82.53;101191.06;5174436;28;20054;-67
2023/06/07 01:58:20;;;;;;;2.72;2.03;;;18.60;93.80;;;19.08;82.30;101193.69;5181816;28;20077;-68
2023/06/07 02:01:01;;;;;;;2.85;2.03;;;18.60;93.80;;;19.09;83.05;101186.66;5183175;28;20034;-68
2023/06/07 02:03:40;;;;;;;3.28;2.15;;;18.60;94.00;;;19.08;83.46;101188.41;5182275;28;20038;-68
2023/06/07 02:06:21;;;;;;;3.45;2.10;;;18.60;94.20;;;19.09;84.07;101192.81;5183573;28;20120;-68
2023/06/07 02:08:55;;;;;;;3.15;2.40;;;18.60;94.50;;;19.09;84.06;101186.66;5183625;28;20049;-68
2023/06/07 02:11:32;;;;;;;3.50;2.15;;;18.60;94.80;;;19.09;84.01;101187.53;5198628;28;20053;-68
2023/06/07 02:14:05;;;;;;;4.78;2.55;;;18.70;94.70;;;19.09;84.56;101182.25;5183170;28;20052;-68
2023/06/07 02:16:37;;;;;;;4.35;2.90;;;18.60;94.80;;;19.11;84.07;101177.00;5175717;28;20073;-68
2023/06/07 02:19:16;;;;;;;3.50;2.63;;;18.70;94.70;;;19.09;83.19;101179.63;5183164;28;20072;-68
2023/06/07 02:21:55;;;;;;;4.20;2.30;;;18.70;94.50;;;19.10;82.95;101170.81;5182219;28;20045;-68
2023/06/07 02:24:27;;;;;;;3.42;2.42;;;18.70;94.40;;;19.13;82.07;101177.88;5181785;28;20046;-68
2023/06/07 02:27:03;;;;;;;4.18;2.42;;;18.70;94.10;;;19.13;81.94;101176.13;5198865;28;20265;-68
2023/06/07 02:29:37;;;;;;;3.35;2.67;;;18.70;94.10;;;19.11;81.98;101175.25;5197850;28;20053;-68
2023/06/07 02:32:09;;;;;;;3.70;2.72;;;18.70;94.00;;;19.11;81.59;101171.72;5183166;28;20046;-68
2023/06/07 02:34:43;;;;;;;4.97;2.55;;;18.70;93.90;;;19.12;80.80;101163.78;5183329;28;20034;-68
2023/06/07 02:37:17;;;;;;;4.40;2.70;;;18.70;93.60;;;19.10;81.41;101168.16;5182828;28;20058;-67
2023/06/07 02:39:49;;;;;;;3.85;2.35;;;18.70;93.90;;;19.08;82.39;101172.56;5177430;28;20074;-68
2023/06/07 02:42:23;;;;;;;4.03;2.70;;;18.70;94.20;;;19.07;83.47;101167.28;5181807;28;20042;-68
2023/06/07 02:44:56;;;;;;;2.40;2.10;;;18.70;94.60;;;19.08;84.13;101172.56;5182807;28;20045;-68
2023/06/07 02:47:28;;;;;;;4.60;2.55;;;18.70;94.90;;;19.09;84.06;101165.53;5183065;28;20060;-68
2023/06/07 02:50:02;;;;;;;3.80;2.60;;;18.70;95.00;;;19.08;84.75;101171.69;5182857;28;20037;-68
2023/06/07 02:52:36;;;;;;;3.60;2.53;;;18.70;95.20;;;19.08;84.64;101169.03;5181314;28;20042;-68
2023/06/07 02:55:10;;;;;;;4.05;2.60;;;18.60;95.30;;;19.07;84.73;101164.63;5181093;28;20057;-68
2023/06/07 02:57:44;;;;;;;2.90;2.40;;;18.60;95.30;;;19.06;84.03;101166.41;5183062;28;20050;-68
2023/06/07 03:00:17;;;;;;;3.67;2.40;;;18.60;95.20;;;19.06;84.80;101171.69;5181261;28;20054;-68
2023/06/07 03:03:15;;;;;;;4.50;2.40;;;18.60;95.50;;;19.06;85.59;101176.09;5179462;28;20058;-68
2023/06/07 03:05:53;;;;;;;3.60;2.60;;;18.60;96.10;;;19.04;86.01;101176.09;5181884;28;20046;-67
2023/06/07 03:08:27;;;;;;;3.63;2.30;;;18.60;95.90;;;19.02;85.46;101174.28;5181487;28;20450;-68
2023/06/07 03:11:00;;;;;;;3.90;2.85;;;18.60;95.80;;;19.02;84.64;101175.16;5185889;28;20037;-68
2023/06/07 03:13:38;;;;;;;4.72;2.53;;;18.60;95.60;;;19.01;83.71;101175.16;5185663;28;20042;-68
2023/06/07 03:16:14;;;;;;;3.85;2.55;;;18.60;95.30;;;19.01;84.06;101172.53;5184796;28;20042;-68
2023/06/07 03:18:59;;;;;;;4.07;2.50;;;18.60;95.40;;;18.96;84.20;101169.84;5185663;28;20045;-68
2023/06/07 03:21:33;;;;;;;3.40;2.72;;;18.50;95.50;;;18.92;85.09;101173.38;5185002;28;20034;-68
2023/06/07 03:24:10;;;;;;;4.03;2.50;;;18.50;95.80;;;18.90;85.82;101164.53;5185636;28;20520;-68
2023/06/07 03:26:43;;;;;;;3.47;2.42;;;18.50;96.20;;;18.89;86.19;101168.03;5194493;28;20446;-68
2023/06/07 03:29:17;;;;;;;2.85;2.30;;;18.50;96.30;;;18.87;86.89;101169.78;5201319;22;20057;-72
2023/06/07 03:31:50;;;;;;;3.63;2.60;;;18.50;96.60;;;18.87;87.94;101167.16;5207280;28;20060;-70
2023/06/07 03:34:26;;;;;;;4.05;2.45;;;18.50;97.00;;;18.86;87.54;101179.47;5186266;28;20045;-71
2023/06/07 03:36:59;;;;;;;2.38;2.13;;;18.40;96.90;;;18.86;87.27;101179.47;5180147;28;20498;-72
2023/06/07 03:39:32;;;;;;;2.75;2.30;;;18.50;97.00;;;18.87;87.05;101175.06;5177025;28;20498;-71
2023/06/07 03:42:06;;;;;;;3.95;2.58;;;18.40;96.90;;;18.88;87.33;101180.38;5177498;28;20449;-71
2023/06/07 03:44:42;;;;;;;3.30;2.42;;;18.50;97.10;;;18.86;88.08;101182.13;5191539;28;21812;-72
2023/06/07 03:47:15;;;;;;;2.85;2.40;;;18.40;97.40;;;18.88;87.14;101187.41;5178177;28;20097;-72
2023/06/07 03:49:48;;;;;;;3.25;2.50;;;18.40;97.10;;;18.86;86.71;101183.88;5166471;28;20045;-72
2023/06/07 03:52:22;;;;;;;3.47;2.72;;;18.40;97.00;;;18.88;87.83;101193.56;5173278;28;20042;-72
2023/06/07 03:54:54;;;;;;;3.13;2.47;;;18.40;97.40;;;18.90;88.11;101180.38;5173312;28;20046;-70
2023/06/07 03:57:27;;;;;;;4.00;2.60;;;18.50;97.90;;;18.90;89.37;101196.22;5182784;28;20052;-72
2023/06/07 04:00:06;;;;;;;4.22;2.63;;;18.50;98.00;;;18.85;89.27;101190.94;5184364;28;20037;-71
2023/06/07 04:02:47;;;;;;;3.88;2.55;;;18.40;98.00;;;18.84;91.18;101189.13;5182251;28;20050;-72
2023/06/07 04:05:24;;;;;;;4.20;2.90;;;18.40;98.70;;;18.83;94.39;101191.75;5174015;28;20059;-71
2023/06/07 04:07:59;;;;;;;;;;;18.40;99.80;;;18.81;97.58;101188.25;5171876;28;20125;-71
2023/06/07 04:10:33;;;;;;;4.43;3.00;;;18.40;99.90;;;18.79;98.17;101200.56;5176700;28;19925;-72
2023/06/07 04:13:05;;;;;;;4.85;3.22;;;18.40;99.90;;;18.74;99.67;101192.59;5184905;28;20038;-71
2023/06/07 04:15:40;;;;;;;3.45;2.83;;;18.30;99.90;;;18.73;100.00;101187.31;5178620;28;20039;-72
2023/06/07 04:18:13;;;;;;;3.72;2.95;;;18.30;99.90;;;18.71;100.00;101184.63;5164881;28;20054;-72
2023/06/07 04:20:46;;;;;;;4.50;3.05;;;18.30;99.90;;;18.69;100.00;101189.91;5176249;28;20053;-73
2023/06/07 04:23:20;;;;;;;4.25;3.20;;;18.30;99.90;;;18.66;100.00;101191.63;5192743;28;20045;-73
2023/06/07 04:25:54;;;;;;;5.03;3.13;;;18.30;99.90;;;18.64;100.00;101194.22;5184939;28;20081;-74
2023/06/07 04:28:30;;;;;;;3.80;2.85;;;18.30;99.90;;;18.60;100.00;101187.16;5166778;28;20467;-72
2023/06/07 04:31:08;;;;;;;4.70;2.78;;;18.20;99.90;;;18.57;100.00;101197.69;5171523;28;20236;-73
2023/06/07 04:33:45;;;;;;;5.30;3.08;;;18.20;99.90;;;18.54;100.00;101195.03;5172337;28;20038;-72
2023/06/07 04:36:19;;;;;;;5.13;3.30;;;18.10;99.90;;;18.53;100.00;101190.63;5173245;28;20579;-72
2023/06/07 04:38:51;;;;;;;6.82;3.90;;;18.10;99.90;;;18.52;100.00;101199.44;5171776;28;20125;-71
2023/06/07 04:41:30;;;;;;;4.95;3.35;;;18.10;99.90;;;18.53;100.00;101206.47;5180226;28;20050;-73
2023/06/07 04:44:04;;;;;;;3.90;3.25;;;18.10;99.90;;;18.51;100.00;101207.31;5165950;28;20491;-72
2023/06/07 04:46:44;;;;;;;5.55;4.00;;;18.10;99.90;;;18.49;100.00;101212.59;5180705;28;20126;-73
2023/06/07 04:49:20;;;;;;;6.57;3.10;;;18.10;99.90;;;18.47;100.00;101206.41;5172297;28;20042;-71
2023/06/07 04:51:53;;;;;;;5.55;3.58;;;18.10;99.90;;;18.47;100.00;101209.06;5163979;28;20050;-72
2023/06/07 04:54:28;;;;;;;4.55;3.30;;;18.10;99.90;;;18.48;100.00;101208.19;5165350;28;20137;-72
2023/06/07 04:57:03;;;;;;;5.78;3.22;;;18.10;99.90;;;18.46;100.00;101215.22;5184220;28;20152;-72
2023/06/07 04:59:42;;;;;;;6.28;3.90;;;18.10;99.90;;;18.47;100.00;101210.81;5183059;28;20041;-72
2023/06/07 05:02:18;;;;;;;5.32;3.30;;;18.10;99.90;;;18.49;100.00;101209.94;5167969;28;20046;-72
2023/06/07 05:04:52;;;;;;;6.32;3.67;;;18.10;99.90;;;18.48;100.00;101213.47;5177283;28;20064;-74
2023/06/07 05:07:26;;;;;;;4.82;3.60;;;18.10;99.90;;;18.47;100.00;101211.69;5169444;28;20129;-71
2023/06/07 05:10:00;;;;;;;5.10;3.35;;;18.10;99.90;;;18.46;100.00;101209.06;5169640;28;20038;-72
2023/06/07 05:12:32;;;;;;;4.63;3.47;;;18.00;99.90;;;18.47;100.00;101201.13;5181793;28;20108;-73
2023/06/07 05:15:06;;;;;;;5.97;3.67;;;18.10;99.90;;;18.50;100.00;101206.44;5183436;28;20068;-73
2023/06/07 05:17:44;;;;;;;5.32;3.55;;;18.10;99.90;;;18.49;100.00;101196.75;5183373;28;20042;-74
2023/06/07 05:20:18;;;;;;;6.28;4.10;;;18.10;99.90;;;18.49;100.00;101199.38;5167085;28;20050;-71
2023/06/07 05:22:50;;;;;;;5.72;3.75;;;18.10;99.90;;;18.50;100.00;101195.00;5193213;28;20034;-72
2023/06/07 05:25:22;;;;;;;6.20;4.03;;;18.10;99.90;;;18.49;100.00;101203.78;5184117;28;20501;-72
2023/06/07 05:27:55;;;;;;;5.28;3.85;;;18.10;99.90;;;18.48;100.00;101202.91;5170124;28;20472;-72
2023/06/07 05:30:27;;;;;;;6.95;3.70;;;18.10;99.90;;;18.49;100.00;101199.38;5178665;28;20772;-72
2023/06/07 05:33:01;;;;;;;4.95;3.40;;;18.10;99.90;;;18.49;100.00;101202.03;5168412;28;20045;-72
2023/06/07 05:35:33;;;;;;;6.28;3.78;;;18.10;99.90;;;18.51;100.00;101200.28;5183073;28;20046;-75
2023/06/07 05:38:08;;;;;;;7.30;4.03;;;18.10;99.90;;;18.52;100.00;101198.53;5168461;28;20419;-73
2023/06/07 05:40:41;;;;;;;5.15;3.63;;;18.10;99.90;;;18.55;100.00;101198.56;5185668;28;20047;-72
2023/06/07 05:43:13;;;;;;;5.00;3.20;;;18.10;99.90;;;18.58;100.00;101199.50;5195902;28;20201;-72
2023/06/07 05:45:45;;;;;;;5.53;3.53;;;18.20;99.90;;;18.61;100.00;101207.41;5179075;28;20053;-73
2023/06/07 05:48:19;;;;;;;5.20;3.72;;;18.20;99.90;;;18.63;100.00;101207.41;5170517;28;20507;-72
2023/06/07 05:50:53;;;;;;;5.75;3.25;;;18.20;99.90;;;18.68;100.00;101206.63;5182231;28;20044;-71
2023/06/07 05:53:26;;;;;;;4.78;3.33;;;18.30;99.90;;;18.72;100.00;101212.84;5175569;28;20483;-69
2023/06/07 05:55:59;;;;;;;4.57;3.03;;;18.30;99.90;;;18.75;100.00;101214.59;5177987;28;20034;-70
2023/06/07 05:58:32;;;;;;;4.80;3.10;;;18.30;99.90;;;18.76;100.00;101206.69;5181116;28;20046;-70
2023/06/07 06:01:11;;;;;;;5.13;3.50;;;18.30;99.90;;;18.76;100.00;101213.72;5175661;28;20070;-69
2023/06/07 06:03:44;;;;;;;4.45;3.17;;;18.30;99.90;;;18.77;100.00;101218.13;5177638;28;20042;-59
2023/06/07 06:06:19;;;;;;;4.88;3.38;;;18.40;99.90;;;18.79;100.00;101208.47;5164450;28;20054;-59
2023/06/07 06:08:51;;;;;;;5.43;3.38;;;18.30;99.90;;;18.82;100.00;101208.50;5175885;28;20546;-63
2023/06/07 06:11:24;;;;;;;6.45;3.33;;;18.40;99.90;;;18.87;100.00;101220.88;5182283;28;20056;-62
2023/06/07 06:13:56;;;;;;;5.40;3.20;;;18.40;99.90;;;18.92;100.00;101220.91;5178037;28;20042;-64
2023/06/07 06:16:28;;;;;;;5.80;3.53;;;18.50;99.90;;;18.96;100.00;101212.13;5171869;28;20100;-58
2023/06/07 06:19:02;;;;;;;4.43;2.92;;;18.50;99.90;;;19.00;100.00;101213.91;5191989;28;20076;-58
2023/06/07 06:21:34;;;;;;;4.03;2.70;;;18.50;99.90;;;19.11;100.00;101217.53;5184192;28;20514;-57
2023/06/07 06:24:08;;;;;;;5.28;3.10;;;18.70;99.90;;;19.31;99.98;101220.28;5184133;28;20046;-59
2023/06/07 06:26:40;;;;;;;5.13;2.95;;;18.80;99.90;;;19.45;98.68;101223.88;5184296;28;20046;-57
2023/06/07 06:29:12;;;;;;;4.38;2.90;;;19.00;99.90;;;19.58;97.97;101229.28;5183810;28;20061;-57
2023/06/07 06:31:44;;;;;;;5.20;3.28;;;19.10;99.90;;;19.67;96.66;101230.19;5183933;28;20060;-58
2023/06/07 06:34:18;;;;;;;5.97;3.15;;;19.30;99.90;;;19.79;95.85;101239.94;5183828;28;20117;-58
2023/06/07 06:36:51;;;;;;;5.13;3.30;;;19.40;99.90;;;19.90;95.35;101227.63;5183642;28;20125;-58
2023/06/07 06:39:25;;;;;;;6.07;3.10;;;19.50;99.90;;;19.93;95.09;101227.63;5183650;28;20491;-58
2023/06/07 06:41:57;;;;;;;4.82;3.33;;;19.60;99.90;;;19.98;95.69;101225.00;5183607;28;20045;-57
2023/06/07 06:44:43;;;;;;;5.25;3.25;;;19.60;99.90;;;20.01;95.78;101235.59;5182117;28;20545;-57
2023/06/07 06:47:16;;;;;;;5.68;3.20;;;19.70;99.90;;;20.02;96.20;101227.69;5183723;28;20049;-56
2023/06/07 06:49:49;;;;;;;6.65;3.17;;;19.70;99.90;;;20.08;96.40;101221.50;5183708;28;20075;-57
2023/06/07 06:52:21;;;;;;;5.10;3.60;;;19.80;99.90;;;20.13;95.76;101234.75;5183332;28;20037;-57
2023/06/07 06:54:53;;;;;;;5.68;3.65;;;19.80;99.90;;;20.11;95.39;101242.69;5183430;28;20137;-58
2023/06/07 06:57:26;;;;;;;8.20;3.22;;;19.80;99.90;;;20.14;95.84;101247.09;5174776;28;20499;-58
2023/06/07 06:59:59;;;;;;;6.43;3.38;;;19.80;99.90;;;20.16;97.47;101243.59;5163237;28;20050;-58
2023/06/07 07:02:31;;;;;;;6.68;3.47;;;19.80;99.90;;;20.14;98.90;101257.69;5181140;28;20065;-57
2023/06/07 07:05:06;;;;;;;5.43;3.75;;;19.90;99.90;;;20.12;100.00;101259.44;5177091;28;20125;-58
2023/06/07 07:07:39;;;;;;;5.30;3.67;;;19.80;99.90;;;20.06;100.00;101255.03;5183263;28;20045;-58
2023/06/07 07:10:12;;;;;;;5.57;3.67;;;19.70;99.90;;;20.05;100.00;101266.50;5190324;28;20108;-58
2023/06/07 07:12:44;;;;;;;5.75;3.20;;;19.70;99.90;;;20.04;100.00;101262.09;5184230;28;20634;-58
2023/06/07 07:15:17;;;;;;;4.65;3.50;;;19.70;99.90;;;20.08;100.00;101268.25;5183310;28;20132;-58
2023/06/07 07:17:51;;;;;;;5.60;3.60;;;19.70;99.90;;;20.12;100.00;101260.34;5187017;28;20037;-58
2023/06/07 07:20:24;;;;;;;5.60;3.58;;;19.70;99.90;;;20.06;100.00;101263.84;5170940;28;20407;-58
2023/06/07 07:22:59;;;;;;;9.65;4.47;;;19.70;99.90;;;20.09;100.00;101265.63;5184114;28;20061;-57
2023/06/07 07:25:31;;;;;;;5.70;3.67;;;19.70;99.90;;;20.12;100.00;101264.75;5181262;28;20050;-59
2023/06/07 07:28:04;;;;;;;4.65;3.05;;;19.70;99.90;;;20.13;100.00;101262.09;5170797;28;20145;-60
2023/06/07 07:30:36;;;;;;;5.43;3.35;;;19.80;99.90;;;20.13;100.00;101262.09;5171084;28;20486;-59
2023/06/07 07:33:09;;;;;;;5.55;3.40;;;19.70;99.90;;;20.12;100.00;101262.97;5174906;28;20042;-59
2023/06/07 07:35:42;;;;;;;3.95;3.00;;;19.70;99.90;;;20.12;100.00;101267.41;5174376;28;20633;-58
2023/06/07 07:38:15;;;;;;;5.05;3.10;;;19.70;99.90;;;20.14;100.00;101268.28;5167769;28;20054;-58
2023/06/07 07:40:47;;;;;;;5.30;3.00;;;19.70;99.90;;;20.14;100.00;101265.63;5181194;28;20042;-59
2023/06/07 07:43:20;;;;;;;4.75;3.28;;;19.70;99.90;;;20.13;100.00;101270.03;5181271;28;20518;-60
2023/06/07 07:45:52;;;;;;;4.53;3.13;;;19.70;99.90;;;20.12;100.00;101265.63;5170322;28;20052;-60
2023/06/07 07:48:24;;;;;;;4.97;3.03;;;19.70;99.90;;;20.12;100.00;101270.03;5170393;28;20057;-59
2023/06/07 07:50:57;;;;;;;5.25;2.97;;;19.70;99.90;;;20.12;100.00;101273.56;5166740;28;20046;-58
2023/06/07 07:53:29;;;;;;;5.20;3.25;;;19.70;99.90;;;20.14;100.00;101269.16;5173833;28;20050;-59
2023/06/07 07:56:02;;;;;;;5.32;3.38;;;19.70;99.90;;;20.18;100.00;101267.41;5169539;28;20046;-58
2023/06/07 07:58:34;;;;;;;5.50;3.60;;;19.70;99.90;;;20.20;100.00;101271.81;5175279;28;20073;-59
2023/06/07 08:01:08;;;;;;;5.25;3.20;;;19.80;99.90;;;20.26;100.00;101263.91;5179064;28;20065;-59
2023/06/07 08:03:41;;;;;;;4.30;3.15;;;19.80;99.90;;;20.36;100.00;101261.28;5184329;28;20048;-59
2023/06/07 08:06:15;;;;;;;6.20;3.55;;;19.80;99.90;;;20.50;100.00;101259.56;5181587;28;20054;-59
2023/06/07 08:08:47;;;;;;;5.65;3.33;;;20.00;99.90;;;20.66;99.79;101258.69;5194665;28;20092;-59
2023/06/07 08:11:20;;;;;;;4.82;3.35;;;20.10;99.90;;;20.81;99.23;101256.06;5186435;28;20050;-59
2023/06/07 08:13:52;;;;;;;5.18;3.38;;;20.20;99.90;;;20.96;98.67;101260.47;5186507;28;20072;-58
2023/06/07 08:16:25;;;;;;;4.80;2.90;;;20.40;99.90;;;21.03;97.75;101254.28;5186214;28;20050;-60
2023/06/07 08:18:58;;;;;;;5.10;3.15;;;20.50;99.90;;;21.10;96.71;101261.34;5186893;28;20129;-60
2023/06/07 08:21:32;;;;;;;5.30;3.17;;;20.50;99.90;;;21.23;95.36;101256.03;5178417;28;20069;-59
2023/06/07 08:24:05;;;;;;;7.32;3.17;;;20.60;99.90;;;21.29;94.45;101251.63;5173018;28;20403;-58
2023/06/07 08:26:37;;;;;;;5.00;3.22;;;20.70;99.90;;;21.28;94.63;101249.88;5181396;28;20101;-58
2023/06/07 08:29:09;;;;;;;4.75;3.33;;;20.80;99.90;;;21.26;94.67;101256.94;5184325;28;20125;-57
2023/06/07 08:31:43;;;;;;;6.05;3.50;;;20.80;99.90;;;21.26;94.52;101248.97;5167391;28;20065;-58
2023/06/07 08:34:15;;;;;;;5.13;3.10;;;20.70;99.90;;;21.35;94.31;101256.94;5181771;28;20104;-59
2023/06/07 08:36:50;;;;;;;4.78;3.08;;;20.80;99.90;;;21.51;93.89;101251.56;5181433;28;20491;-58
2023/06/07 08:39:23;;;;;;;5.72;3.45;;;20.90;99.90;;;21.73;92.91;101263.91;5164569;28;20180;-58
2023/06/07 08:41:55;;;;;;;5.28;3.40;;;21.10;99.90;;;22.13;92.29;101242.50;5172545;28;20074;-59
2023/06/07 08:44:27;;;;;;;5.18;3.50;;;21.30;99.90;;;22.94;89.41;101237.50;5173269;28;20398;-58
2023/06/07 08:47:01;;;;;;;6.82;3.25;;;21.70;99.90;;;24.60;83.37;101229.25;5172911;28;20403;-58
2023/06/07 08:49:34;;;;;;;4.68;2.83;;;22.70;99.90;;;26.67;75.16;101234.00;5182098;28;20511;-58
2023/06/07 08:52:10;;;;;;;4.60;3.03;;;24.00;99.00;;;28.67;67.35;101235.41;5185408;28;20050;-58
2023/06/07 08:54:44;;;;;;;4.22;2.60;;;25.50;95.70;;;30.39;61.58;101230.91;5175008;28;20595;-58
2023/06/07 08:57:17;;;;;;;5.95;3.30;;;26.90;92.60;;;31.86;57.03;101240.69;5165919;28;20074;-58
2023/06/07 08:59:49;;;;;;;4.72;2.55;;;28.10;88.60;;;32.88;54.61;101238.41;5183158;28;20038;-59
2023/06/07 09:02:24;;;;;;;3.60;2.63;;;29.10;83.50;;;33.67;52.44;101241.44;5169764;28;20488;-59
2023/06/07 09:04:56;;;;;;;5.07;2.72;;;29.90;79.00;;;34.17;50.48;101232.38;5176652;28;20041;-59
2023/06/07 09:07:29;;;;;;;4.82;2.40;;;30.40;75.10;;;34.64;48.60;101236.91;5176800;28;20053;-59
2023/06/07 09:10:02;;;;;;;3.65;2.22;;;30.80;71.50;;;34.75;45.98;101234.41;5172211;28;20503;-59
2023/06/07 09:12:34;;;;;;;4.15;2.40;;;31.00;67.30;;;35.18;45.91;101234.56;5171742;28;20108;-59
2023/06/07 09:15:08;;;;;;;3.72;2.15;;;31.30;66.40;;;35.48;44.05;101241.81;5177406;28;20678;-60
2023/06/07 09:17:52;;;;;;;4.50;2.30;;;31.60;63.90;;;35.16;43.67;101233.78;5184758;28;20042;-60
2023/06/07 09:20:26;;;;;;;4.03;2.40;;;31.60;62.30;;;34.82;43.61;101224.06;5192809;28;20572;-58
2023/06/07 09:23:02;;;;;;;4.00;2.60;;;31.50;61.60;;;34.40;44.79;101233.75;5168901;28;20048;-58
2023/06/07 09:25:35;;;;;;;3.83;2.40;;;31.30;61.80;;;33.95;44.66;101216.47;5168595;28;20061;-59
2023/06/07 09:28:10;;;;;;;3.80;2.45;;;31.10;61.00;;;33.65;46.04;101224.44;5173673;28;20050;-58
2023/06/07 09:30:57;;;;;;;3.70;2.35;;;31.10;61.90;;;32.66;46.94;101216.13;5210699;22;20056;-57
2023/06/07 09:33:33;;;;;;;4.40;2.47;;;30.70;61.70;;;31.25;49.16;101217.41;5203841;28;20128;-57
2023/06/07 09:36:09;;;;;;;4.47;2.60;;;29.80;62.40;;;30.05;51.39;101222.38;5192662;28;20069;-58
2023/06/07 09:38:43;;;;;;;3.85;2.70;;;28.90;64.00;;;28.89;54.07;101217.66;5201419;28;20548;-58
2023/06/07 09:41:15;;;;;;;4.90;2.63;;;28.00;65.60;;;27.93;56.29;101217.22;5186207;28;20053;-58
2023/06/07 09:43:50;;;;;;;5.13;2.72;;;27.20;67.40;;;27.12;58.55;101220.38;5201983;28;20856;-58
2023/06/07 09:46:22;;;;;;;3.67;2.88;;;26.50;69.30;;;26.39;60.93;101216.81;5201102;28;20307;-57
2023/06/07 09:48:55;;;;;;;4.85;3.00;;;25.80;71.10;;;25.79;63.32;101214.66;5191109;28;20124;-58
2023/06/07 09:51:27;;;;;;;4.45;3.10;;;25.20;73.10;;;25.34;65.26;101214.63;5191666;28;20509;-58
2023/06/07 09:54:02;;;;;;;4.75;3.15;;;24.80;75.10;;;25.04;67.18;101217.00;5202663;28;20169;-58
2023/06/07 09:56:34;;;;;;;5.57;3.00;;;24.40;76.80;;;24.79;68.27;101207.63;5196468;28;20055;-58
2023/06/07 09:59:08;;;;;;;5.63;2.90;;;24.20;78.20;;;24.63;70.08;101207.88;5188842;28;20065;-57
2023/06/07 10:01:43;;;;;;;3.88;2.72;;;24.00;79.90;;;24.60;71.39;101221.25;5181310;28;20046;-58
2023/06/07 10:04:15;;;;;;;5.53;3.28;;;23.90;81.50;;;24.54;72.38;101210.69;5194140;28;20049;-61
2023/06/07 10:06:54;;;;;;;3.75;2.97;;;23.90;82.90;;;24.58;73.42;101204.44;5198500;28;20033;-58
2023/06/07 10:09:30;;;;;;;6.60;3.60;;;23.80;84.30;;;24.57;73.86;101197.31;5188852;28;20049;-57
2023/06/07 10:12:06;;;;;;;4.30;3.20;;;23.80;85.40;;;24.51;73.93;101192.06;5194669;28;20057;-57
2023/06/07 10:14:41;;;;;;;5.20;3.40;;;23.80;85.60;;;24.39;74.89;101197.63;5191419;28;20128;-58
2023/06/07 10:17:15;;;;;;;5.13;3.55;;;23.80;86.80;;;24.23;74.98;101194.28;5195385;28;20046;-58
2023/06/07 10:19:52;;;;;;;6.28;3.38;;;23.70;87.10;;;24.13;75.99;101194.47;5183679;28;20076;-58
2023/06/07 10:22:27;;;;;;;4.68;3.22;;;23.50;88.10;;;24.04;76.98;101198.13;5190805;28;20117;-58
2023/06/07 10:25:05;;;;;;;5.28;3.30;;;23.50;89.30;;;23.97;77.96;101199.97;5186877;28;20116;-57
2023/06/07 10:27:45;;;;;;;5.53;3.60;;;23.40;90.20;;;23.92;78.11;101184.97;5187240;28;20054;-55
2023/06/07 10:30:18;;;;;;;5.32;3.58;;;23.30;90.50;;;23.80;78.38;101183.38;5188899;28;20129;-56
2023/06/07 10:32:52;;;;;;;4.82;3.45;;;23.20;90.80;;;23.69;79.24;101187.97;5191465;28;20064;-56
2023/06/07 10:35:25;;;;;;;7.45;3.70;;;23.20;91.20;;;23.64;80.17;101189.78;5206075;28;20049;-57
2023/06/07 10:37:58;;;;;;;7.03;3.88;;;23.10;91.70;;;23.56;81.21;101185.41;5187032;28;20240;-54